Terminal Aerodrome Forecast
Issued by NWS

Home | Current Version | Previous Version | Graphics & Text | Print | Product List | Glossary On
Versions: 1 2 3 4 5 6 7 8 9 10 11 12 13 14 15 16 17
000
FTUS43 KBIS 261100
TAFJMS
TAF
KJMS 261127Z 2612/2712 36010KT P6SM SCT015 BKN100
      TEMPO 2612/2616 6SM -SN BR BKN015 OVC100
     FM261600 35010KT P6SM SCT015 BKN070
     FM262100 36006KT P6SM SCT150
     FM270600 VRB03KT P6SM SKC=

USA.gov is the U.S. government's official web portal to all federal, state and local government web resources and services.